createdAt,value
2022-12-11T00:03:45.928Z,91.77
2022-12-11T00:08:52.515Z,92.22
2022-12-11T00:13:55.479Z,91.28
2022-12-11T00:18:58.352Z,89.99
2022-12-11T00:24:02.587Z,90.50
2022-12-11T00:29:05.704Z,90.15
2022-12-11T00:34:08.681Z,90.71
2022-12-11T00:39:12.994Z,91.16
2022-12-11T00:44:16.152Z,90.50
2022-12-11T00:49:19.054Z,91.09
2022-12-11T00:54:23.283Z,91.27
2022-12-11T00:59:26.452Z,89.90
2022-12-11T01:04:29.350Z,91.42
2022-12-11T01:09:50.947Z,91.41
2022-12-11T01:14:53.830Z,91.23
2022-12-11T01:19:56.963Z,90.94
2022-12-11T01:25:01.195Z,90.86
2022-12-11T01:30:04.358Z,91.78
2022-12-11T01:35:09.284Z,91.75
2022-12-11T01:40:15.694Z,92.70
2022-12-11T01:45:36.503Z,91.03
2022-12-11T01:50:45.639Z,91.38
2022-12-11T01:55:52.378Z,91.10
2022-12-11T02:00:57.117Z,89.93
2022-12-11T02:06:00.857Z,89.95
2022-12-11T02:11:12.621Z,90.76
2022-12-11T02:16:23.175Z,90.50
2022-12-11T02:21:29.467Z,90.72
2022-12-11T02:26:53.668Z,91.12
2022-12-11T02:32:03.254Z,90.76
2022-12-11T02:37:10.939Z,90.21
2022-12-11T02:42:16.227Z,92.18
2022-12-11T02:47:22.411Z,90.95
2022-12-11T02:52:28.057Z,90.93
2022-12-11T02:57:35.482Z,90.79
2022-12-11T03:02:41.519Z,90.84
2022-12-11T03:07:46.441Z,90.88
2022-12-11T03:12:54.392Z,90.82
2022-12-11T03:18:05.122Z,91.35
2022-12-11T03:23:18.697Z,90.85
2022-12-11T03:28:28.303Z,90.33
2022-12-11T03:33:36.842Z,89.99
2022-12-11T03:38:45.235Z,90.92
2022-12-11T03:43:50.864Z,90.63
2022-12-11T03:48:57.669Z,89.98
2022-12-11T03:54:01.370Z,89.20
2022-12-11T03:59:04.522Z,88.87
2022-12-11T04:04:08.915Z,87.10
2022-12-11T04:09:12.583Z,87.15
2022-12-11T04:14:33.485Z,87.40
2022-12-11T04:19:55.185Z,87.94
2022-12-11T04:24:58.105Z,87.35
2022-12-11T04:30:00.977Z,87.50
2022-12-11T04:35:07.052Z,86.54
2022-12-11T04:40:13.160Z,86.42
2022-12-11T04:45:16.551Z,86.26
2022-12-11T04:50:20.836Z,87.41
2022-12-11T04:55:24.299Z,87.49
2022-12-11T05:00:27.230Z,86.30
2022-12-11T05:05:31.539Z,87.55
2022-12-11T05:10:34.438Z,87.11
2022-12-11T05:15:40.479Z,87.80
2022-12-11T05:20:44.860Z,86.97
2022-12-11T05:25:53.126Z,88.27
2022-12-11T05:30:57.896Z,90.07
2022-12-11T05:36:02.397Z,90.31
2022-12-11T05:41:07.112Z,91.05
2022-12-11T05:46:12.246Z,90.52
2022-12-11T05:51:18.867Z,89.64
2022-12-11T05:56:24.056Z,89.81
2022-12-11T06:01:29.855Z,90.51
2022-12-11T06:06:34.321Z,89.49
2022-12-11T06:11:37.323Z,89.77
2022-12-11T06:16:40.239Z,89.43
2022-12-11T06:21:44.534Z,88.84
2022-12-11T06:26:47.493Z,88.89
2022-12-11T06:31:50.462Z,88.80
2022-12-11T06:36:54.837Z,88.69
2022-12-11T06:41:57.761Z,88.24
2022-12-11T06:47:00.739Z,87.81
2022-12-11T06:52:06.946Z,87.22
2022-12-11T06:57:10.604Z,87.01
2022-12-11T07:02:14.530Z,88.96
2022-12-11T07:07:19.854Z,87.98
2022-12-11T07:12:22.777Z,86.70
2022-12-11T07:17:26.000Z,87.29
2022-12-11T07:22:31.157Z,88.68
2022-12-11T07:27:34.095Z,88.11
2022-12-11T07:32:37.146Z,86.58
2022-12-11T07:37:42.700Z,85.23
2022-12-11T07:42:46.394Z,85.37
2022-12-11T07:47:49.470Z,86.03
2022-12-11T07:52:53.793Z,84.13
2022-12-11T07:57:56.842Z,84.43
2022-12-11T08:02:59.954Z,83.60
2022-12-11T08:08:04.387Z,84.92
2022-12-11T08:13:07.428Z,84.51
2022-12-11T08:18:10.331Z,85.19
2022-12-11T08:23:14.746Z,85.92
2022-12-11T08:28:17.697Z,85.41
2022-12-11T08:33:20.991Z,84.84
2022-12-11T08:38:25.832Z,86.44
2022-12-11T08:43:29.483Z,87.05
2022-12-11T08:48:32.370Z,87.43
2022-12-11T08:53:36.738Z,87.38
2022-12-11T08:58:39.975Z,86.05
2022-12-11T09:03:43.531Z,84.77
2022-12-11T09:08:52.654Z,85.23
2022-12-11T09:13:56.566Z,86.58
2022-12-11T09:19:00.693Z,86.54
2022-12-11T09:24:05.765Z,85.40
2022-12-11T09:29:09.034Z,83.88
2022-12-11T09:34:14.559Z,84.79
2022-12-11T09:39:19.740Z,83.53
2022-12-11T09:44:33.506Z,85.11
2022-12-11T09:49:40.814Z,84.07
2022-12-11T09:54:51.817Z,84.72
2022-12-11T10:00:11.302Z,83.10
2022-12-11T10:05:21.967Z,82.72
2022-12-11T10:10:40.292Z,86.24
2022-12-11T10:15:50.932Z,83.19
2022-12-11T10:20:55.214Z,83.10
2022-12-11T10:26:06.930Z,83.82
2022-12-11T10:31:18.256Z,83.41
2022-12-11T10:36:28.768Z,82.82
2022-12-11T10:41:39.987Z,83.03
2022-12-11T10:46:43.241Z,82.03
2022-12-11T10:51:46.354Z,82.23
2022-12-11T10:56:51.599Z,80.95
2022-12-11T11:01:55.163Z,80.91
2022-12-11T11:07:12.672Z,80.07
2022-12-11T11:12:24.376Z,79.83
2022-12-11T11:17:30.730Z,79.94
2022-12-11T11:22:42.510Z,80.74
2022-12-11T11:27:52.078Z,79.15
2022-12-11T11:32:57.733Z,76.20
2022-12-11T11:38:10.963Z,74.00
2022-12-11T11:43:22.679Z,73.96
2022-12-11T11:48:36.682Z,72.55
2022-12-11T11:53:41.715Z,71.53
2022-12-11T11:58:55.434Z,77.36
2022-12-11T12:03:59.723Z,74.77
2022-12-11T12:09:16.114Z,72.96
2022-12-11T12:19:59.780Z,73.41
2022-12-11T12:25:16.802Z,73.24
2022-12-11T12:30:23.695Z,73.62
2022-12-11T12:35:35.723Z,72.88
2022-12-11T12:40:49.100Z,71.25
2022-12-11T12:46:00.470Z,70.06
2022-12-11T12:51:05.635Z,70.65
2022-12-11T12:56:09.377Z,71.35
2022-12-11T13:01:19.576Z,71.31
2022-12-11T13:06:38.073Z,69.32
2022-12-11T13:11:41.025Z,69.97
2022-12-11T13:16:47.135Z,69.18
2022-12-11T13:21:58.285Z,69.37
2022-12-11T13:27:11.976Z,69.59
2022-12-11T13:32:25.563Z,71.56
2022-12-11T13:37:33.103Z,70.90
2022-12-11T13:42:39.467Z,72.52
2022-12-11T13:47:43.935Z,72.22
2022-12-11T13:52:54.685Z,74.60
2022-12-11T13:57:58.416Z,74.91
2022-12-11T14:03:08.336Z,73.77
2022-12-11T14:08:21.427Z,72.72
2022-12-11T14:13:28.424Z,72.52
2022-12-11T14:18:35.988Z,71.97
2022-12-11T14:23:38.939Z,73.28
2022-12-11T14:28:43.836Z,75.08
2022-12-11T14:33:52.017Z,75.24
2022-12-11T14:38:58.590Z,75.11
2022-12-11T14:44:05.514Z,76.85
2022-12-11T14:49:19.157Z,77.44
2022-12-11T14:54:30.169Z,77.81
2022-12-11T14:59:37.595Z,81.15
2022-12-11T15:04:41.970Z,81.86
2022-12-11T15:09:47.879Z,83.99
2022-12-11T15:14:55.007Z,84.45
2022-12-11T15:20:05.656Z,82.90
2022-12-11T15:25:20.032Z,84.35
2022-12-11T15:30:31.199Z,85.59
2022-12-11T15:35:35.649Z,86.72
2022-12-11T15:40:40.137Z,86.77
2022-12-11T15:45:43.438Z,83.92
2022-12-11T15:50:47.925Z,85.13
2022-12-11T15:55:51.426Z,85.49
2022-12-11T16:00:55.109Z,83.57
2022-12-11T16:05:59.427Z,83.16
2022-12-11T16:11:02.316Z,84.55
2022-12-11T16:16:05.616Z,82.63
2022-12-11T16:21:09.981Z,83.27
2022-12-11T16:26:14.097Z,82.59
2022-12-11T16:31:17.115Z,81.42
2022-12-11T16:36:21.620Z,82.42
2022-12-11T16:41:24.908Z,82.36
2022-12-11T16:46:28.166Z,82.33
2022-12-11T16:51:32.719Z,82.16
2022-12-11T16:56:35.798Z,81.25
2022-12-11T17:01:38.820Z,81.01
2022-12-11T17:06:43.160Z,81.80
2022-12-11T17:11:46.077Z,81.32
2022-12-11T17:16:49.084Z,82.04
2022-12-11T17:21:54.231Z,81.91
2022-12-11T17:26:57.116Z,82.06
2022-12-11T17:32:00.086Z,82.43
2022-12-11T17:37:04.448Z,82.61
2022-12-11T17:42:07.447Z,83.59
2022-12-11T17:47:11.977Z,84.20
2022-12-11T17:52:16.283Z,82.58
2022-12-11T17:57:19.221Z,82.60
2022-12-11T18:02:22.203Z,82.46
2022-12-11T18:07:26.550Z,83.49
2022-12-11T18:12:30.983Z,83.24
2022-12-11T18:17:35.372Z,82.44
2022-12-11T18:22:40.138Z,83.42
2022-12-11T18:27:43.068Z,82.54
2022-12-11T18:32:46.324Z,82.42
2022-12-11T18:37:50.623Z,81.82
2022-12-11T18:42:53.607Z,82.07
2022-12-11T18:47:56.848Z,82.29
2022-12-11T18:53:03.811Z,81.86
2022-12-11T18:58:06.701Z,81.64
2022-12-11T19:03:10.569Z,84.17
2022-12-11T19:08:16.382Z,83.46
2022-12-11T19:13:19.562Z,82.84
2022-12-11T19:18:22.807Z,81.83
2022-12-11T19:23:27.163Z,82.38
2022-12-11T19:28:30.288Z,81.50
2022-12-11T19:33:33.204Z,82.00
2022-12-11T19:38:38.890Z,81.97
2022-12-11T19:43:42.123Z,81.66
2022-12-11T19:48:45.660Z,81.92
2022-12-11T19:53:50.669Z,82.17
2022-12-11T19:58:53.562Z,84.96
2022-12-11T20:03:59.553Z,85.47
2022-12-11T20:09:05.305Z,84.23
2022-12-11T20:14:08.384Z,83.73
2022-12-11T20:19:11.453Z,86.57
2022-12-11T20:24:15.796Z,85.09
2022-12-11T20:29:18.736Z,86.07
2022-12-11T20:34:21.745Z,85.25
2022-12-11T20:39:26.548Z,84.68
2022-12-11T20:44:29.467Z,85.32
2022-12-11T20:49:32.606Z,84.67
2022-12-11T20:54:37.020Z,83.51
2022-12-11T20:59:40.147Z,83.76
2022-12-11T21:04:43.253Z,83.24
2022-12-11T21:09:47.519Z,84.69
2022-12-11T21:14:50.422Z,84.60
2022-12-11T21:19:53.348Z,84.11
2022-12-11T21:24:57.810Z,82.86
2022-12-11T21:30:01.143Z,87.38
2022-12-11T21:35:04.835Z,83.90
2022-12-11T21:40:10.391Z,84.90
2022-12-11T21:50:36.300Z,82.49
2022-12-11T21:55:42.560Z,82.80
2022-12-11T22:00:46.652Z,83.31
2022-12-11T22:05:49.962Z,83.94
2022-12-11T22:10:54.643Z,83.37
2022-12-11T22:15:57.682Z,83.20
2022-12-11T22:21:00.825Z,82.98
2022-12-11T22:26:05.282Z,83.39
2022-12-11T22:31:11.087Z,83.09
2022-12-11T22:36:14.083Z,83.57
2022-12-11T22:41:24.128Z,83.68
2022-12-11T22:46:30.483Z,83.43
2022-12-11T22:51:33.455Z,83.68
2022-12-11T22:56:37.961Z,83.98
2022-12-11T23:01:40.999Z,83.74
2022-12-11T23:06:43.944Z,83.98
2022-12-11T23:11:48.256Z,84.83
2022-12-11T23:16:51.328Z,84.80
2022-12-11T23:21:54.705Z,84.30
2022-12-11T23:27:00.177Z,85.37
2022-12-11T23:32:03.287Z,84.81
2022-12-11T23:37:06.228Z,84.14
2022-12-11T23:42:10.516Z,85.96
2022-12-11T23:47:13.549Z,85.80
2022-12-11T23:52:16.551Z,85.25
2022-12-11T23:57:20.818Z,84.68
